Aeroporto :
LOGIN :

Iscrizione | Disclaimer

   EN    FR    IT 

 










Sommario :    VFR   VFR Marginale   IFR   IFR Intensivo   IFR Molto Intensivo
Visibilità : 
Base nubi : 
>= 8 km
>= 3000ft
5 / 8 km
1000 / 3000 ft
1500m / 5 km
500 / 1000 ft
800 / 1500m
200 / 500 ft
< 800m
< 200 ft
Simboli :   Temporali  Nebbia  Neve Forte  Precipitazioni Forti  Vento > 20 kt
SIGMETs :   Varie  Temporali  Ghiacco  Turbolenza  Onda orograficha  Ceneri Vulcaniche






- Altitudine del aeroporto : 1649 ft
- Codice IATA : HHN


EDFH - Frankfurt-Hahn Rhineland-Palatinate

ULTIMO METAR :
  • 231920Z 15010KT CAVOK 02/02 Q0995

METARs OBSOLETI :
  • 231850Z 15012KT CAVOK 02/02 Q0995
  • 231820Z 15012KT 140V200 CAVOK 02/02 Q0995
  • 231750Z 16011KT CAVOK 03/03 Q0995
  • 231720Z 17011KT 9999 FEW030 03/02 Q0995
  • 231650Z 17010KT 9999 FEW025 04/03 Q0995
  • 231620Z 18011KT 9999 FEW025 04/03 Q0995
  • 231550Z 17011KT 9999 SCT031 05/02 Q0994
  • 231520Z 19010KT 160V230 9999 VCSH SCT031 05/03 Q0995
  • 231450Z 21006KT 180V240 9999 SCT020 03/03 Q0995

TAF TAF EDFH
Valido dal 23 a 18 ore il 24 a 18 ore UTC


231700Z 2318/2418 18009KT 9999 SCT030
PROB40
TEMPO 2321/2406 3000 SHRA BKN008 BKN020CB
TEMPO 2406/2410 22015G25KT 3000 SHRA BKN006 BKN015CB
BECMG 2409/2412 22014KT
PROB30
TEMPO 2410/2415 22015G25KT 4000 SHRA BKN020TCU



MetMap, La meteo Aeronautica in un colpo d'occhio ! - Copyright ORBIFLY Dicembre 2007 - Disclaimer

ORBIFLY MET'MAP TEAM :

Programmazione e sviluppo : Alexandra Zaïnal
Concezione : Baudouin d'Aumeries
Supporto tecnico e logistico : Manuel Goepfert
Aiuto : Marc-Olivier Méhu
Aiuto per la traduzione : Arnaldo La Scala




FONTI E CREDITI :

   NOAA